createdAt,value
2024-02-17T00:00:22.061Z,10.40
2024-02-17T00:02:49.496Z,10.40
2024-02-17T00:05:16.932Z,10.50
2024-02-17T00:07:43.854Z,10.50
2024-02-17T00:10:10.870Z,10.50
2024-02-17T00:12:38.770Z,10.40
2024-02-17T00:15:07.235Z,10.50
2024-02-17T00:17:34.746Z,10.50
2024-02-17T00:20:02.581Z,10.40
2024-02-17T00:22:29.466Z,10.40
2024-02-17T00:24:56.425Z,10.40
2024-02-17T00:27:23.399Z,10.40
2024-02-17T00:29:50.924Z,10.40
2024-02-17T00:32:17.820Z,10.40
2024-02-17T00:34:44.787Z,10.40
2024-02-17T00:37:11.824Z,10.40
2024-02-17T00:39:38.734Z,10.40
2024-02-17T00:42:06.094Z,10.40
2024-02-17T00:44:33.099Z,10.40
2024-02-17T00:47:00.115Z,10.40
2024-02-17T00:49:27.044Z,10.40
2024-02-17T00:51:54.302Z,10.40
2024-02-17T00:54:21.391Z,10.40
2024-02-17T00:56:48.306Z,10.40
2024-02-17T00:59:16.098Z,10.40
2024-02-17T01:01:44.403Z,10.30
2024-02-17T01:04:11.621Z,10.30
2024-02-17T01:06:39.003Z,10.30
2024-02-17T01:09:06.054Z,10.30
2024-02-17T01:11:33.028Z,10.30
2024-02-17T01:13:59.994Z,10.30
2024-02-17T01:16:27.121Z,10.20
2024-02-17T01:21:23.205Z,10.20
2024-02-17T01:23:50.476Z,10.10
2024-02-17T01:26:17.483Z,10.10
2024-02-17T01:28:44.338Z,10.10
2024-02-17T01:31:11.168Z,10.00
2024-02-17T01:33:38.530Z,9.90
2024-02-17T01:36:05.726Z,9.90
2024-02-17T01:38:32.537Z,9.80
2024-02-17T01:40:59.515Z,9.80
2024-02-17T01:43:26.632Z,9.70
2024-02-17T01:45:53.721Z,9.70
2024-02-17T01:48:21.075Z,9.60
2024-02-17T01:50:49.384Z,9.50
2024-02-17T01:53:16.833Z,9.40
2024-02-17T01:55:44.061Z,9.40
2024-02-17T01:58:11.763Z,9.30
2024-02-17T02:00:39.236Z,9.30
2024-02-17T02:03:06.312Z,9.30
2024-02-17T02:05:33.936Z,9.20
2024-02-17T02:08:01.019Z,9.20
2024-02-17T02:10:27.947Z,9.10
2024-02-17T02:12:54.790Z,9.10
2024-02-17T02:15:27.277Z,9.10
2024-02-17T02:18:00.213Z,9.00
2024-02-17T02:20:27.354Z,8.90
2024-02-17T02:22:54.320Z,9.00
2024-02-17T02:25:26.290Z,8.90
2024-02-17T02:27:54.905Z,8.90
2024-02-17T02:30:22.840Z,8.90
2024-02-17T02:32:50.149Z,8.90
2024-02-17T02:35:17.356Z,8.80
2024-02-17T02:37:44.658Z,8.80
2024-02-17T02:40:11.865Z,8.80
2024-02-17T02:42:38.775Z,8.70
2024-02-17T02:45:07.648Z,8.60
2024-02-17T02:47:34.769Z,8.60
2024-02-17T02:50:02.037Z,8.50
2024-02-17T02:52:29.100Z,8.40
2024-02-17T02:54:56.033Z,8.30
2024-02-17T02:57:23.129Z,8.30
2024-02-17T02:59:51.526Z,8.30
2024-02-17T03:02:18.661Z,8.30
2024-02-17T03:04:46.659Z,8.30
2024-02-17T03:07:13.535Z,8.30
2024-02-17T03:09:40.507Z,8.30
2024-02-17T03:12:07.658Z,8.20
2024-02-17T03:14:35.081Z,8.20
2024-02-17T03:17:01.982Z,8.20
2024-02-17T03:19:30.296Z,8.20
2024-02-17T03:21:57.787Z,8.20
2024-02-17T03:24:24.767Z,8.20
2024-02-17T03:26:51.758Z,8.20
2024-02-17T03:29:18.605Z,8.20
2024-02-17T03:31:46.637Z,8.20
2024-02-17T03:34:14.473Z,8.10
2024-02-17T03:36:41.457Z,8.10
2024-02-17T03:39:10.516Z,8.00
2024-02-17T03:41:37.859Z,8.00
2024-02-17T03:44:05.541Z,8.00
2024-02-17T03:46:33.391Z,8.00
2024-02-17T03:49:00.500Z,8.00
2024-02-17T03:51:27.742Z,8.00
2024-02-17T03:53:54.678Z,8.00
2024-02-17T03:56:21.580Z,8.10
2024-02-17T03:58:49.283Z,8.10
2024-02-17T04:01:16.714Z,8.20
2024-02-17T04:03:43.695Z,8.10
2024-02-17T04:06:11.089Z,8.10
2024-02-17T04:08:38.167Z,8.00
2024-02-17T04:11:05.378Z,8.00
2024-02-17T04:13:32.334Z,7.90
2024-02-17T04:15:59.215Z,7.90
2024-02-17T04:18:26.391Z,7.90
2024-02-17T04:20:53.688Z,7.90
2024-02-17T04:23:20.673Z,7.90
2024-02-17T04:25:47.644Z,7.90
2024-02-17T04:28:14.521Z,7.90
2024-02-17T04:30:41.521Z,8.00
2024-02-17T04:33:08.630Z,8.00
2024-02-17T04:35:35.796Z,8.10
2024-02-17T04:38:02.677Z,8.10
2024-02-17T04:40:29.543Z,8.20
2024-02-17T04:42:58.099Z,8.20
2024-02-17T04:45:26.492Z,8.20
2024-02-17T04:47:53.886Z,8.30
2024-02-17T04:50:21.132Z,8.40
2024-02-17T04:52:48.053Z,8.40
2024-02-17T04:55:15.279Z,8.50
2024-02-17T04:57:42.307Z,8.50
2024-02-17T05:00:10.137Z,8.50
2024-02-17T05:02:38.868Z,8.50
2024-02-17T05:05:06.903Z,8.60
2024-02-17T05:07:34.110Z,8.60
2024-02-17T05:10:01.436Z,8.60
2024-02-17T05:12:28.875Z,8.70
2024-02-17T05:14:57.089Z,8.70
2024-02-17T05:17:25.044Z,8.70
2024-02-17T05:19:52.227Z,8.70
2024-02-17T05:22:19.572Z,8.60
2024-02-17T05:24:46.467Z,8.70
2024-02-17T05:27:14.363Z,8.70
2024-02-17T05:29:41.859Z,8.70
2024-02-17T05:32:09.457Z,8.70
2024-02-17T05:34:37.925Z,8.70
2024-02-17T05:37:06.361Z,8.70
2024-02-17T05:39:33.977Z,8.90
2024-02-17T05:42:01.681Z,8.90
2024-02-17T05:44:29.310Z,9.00
2024-02-17T05:46:56.526Z,9.00
2024-02-17T05:49:24.338Z,9.00
2024-02-17T05:51:55.556Z,9.00
2024-02-17T05:54:22.511Z,9.10
2024-02-17T05:56:52.045Z,9.20
2024-02-17T05:59:18.860Z,9.20
2024-02-17T06:01:47.395Z,9.20
2024-02-17T06:04:15.435Z,9.20
2024-02-17T06:06:42.710Z,9.20
2024-02-17T06:09:09.778Z,9.20
2024-02-17T06:11:36.694Z,9.30
2024-02-17T06:14:03.655Z,9.30
2024-02-17T06:16:30.838Z,9.30
2024-02-17T06:19:16.699Z,9.30
2024-02-17T06:21:43.798Z,9.30
2024-02-17T06:24:10.975Z,9.30
2024-02-17T06:26:38.338Z,9.40
2024-02-17T06:29:06.985Z,9.40
2024-02-17T06:31:37.931Z,9.40
2024-02-17T06:34:07.049Z,9.40
2024-02-17T06:36:34.394Z,9.50
2024-02-17T06:39:01.295Z,9.50
2024-02-17T06:41:28.379Z,9.40
2024-02-17T06:43:55.511Z,9.40
2024-02-17T06:46:22.468Z,9.40
2024-02-17T06:48:51.863Z,9.50
2024-02-17T06:51:20.900Z,9.50
2024-02-17T06:53:48.187Z,9.50
2024-02-17T06:56:15.277Z,9.50
2024-02-17T06:58:42.810Z,9.50
2024-02-17T07:01:10.735Z,9.50
2024-02-17T07:03:38.350Z,9.50
2024-02-17T07:06:06.162Z,9.50
2024-02-17T07:08:33.595Z,9.50
2024-02-17T07:11:00.677Z,9.50
2024-02-17T07:13:28.046Z,9.60
2024-02-17T07:15:55.132Z,9.60
2024-02-17T07:18:22.586Z,9.60
2024-02-17T07:20:53.289Z,9.60
2024-02-17T07:23:22.575Z,9.60
2024-02-17T07:25:49.591Z,9.70
2024-02-17T07:28:17.342Z,9.70
2024-02-17T07:30:44.705Z,9.70
2024-02-17T07:33:12.179Z,9.70
2024-02-17T07:35:45.706Z,9.70
2024-02-17T07:38:13.930Z,9.80
2024-02-17T07:40:40.769Z,9.80
2024-02-17T07:43:08.117Z,9.90
2024-02-17T07:45:35.118Z,9.90
2024-02-17T07:48:02.223Z,10.00
2024-02-17T07:50:29.267Z,10.00
2024-02-17T07:52:56.197Z,10.00
2024-02-17T07:55:23.208Z,10.00
2024-02-17T07:57:50.895Z,10.10
2024-02-17T08:00:18.834Z,10.10
2024-02-17T08:02:49.013Z,10.10
2024-02-17T08:05:16.755Z,10.10
2024-02-17T08:07:44.600Z,10.10
2024-02-17T08:10:14.948Z,10.10
2024-02-17T08:12:42.201Z,10.10
2024-02-17T08:15:09.610Z,10.10
2024-02-17T08:17:36.767Z,10.10
2024-02-17T08:20:05.810Z,10.20
2024-02-17T08:22:34.207Z,10.20
2024-02-17T08:25:02.289Z,10.20
2024-02-17T08:27:29.383Z,10.20
2024-02-17T08:29:56.413Z,10.20
2024-02-17T08:32:23.490Z,10.20
2024-02-17T08:34:51.373Z,10.20
2024-02-17T08:37:18.500Z,10.20
2024-02-17T08:39:51.645Z,10.20
2024-02-17T08:42:19.124Z,10.20
2024-02-17T08:44:46.454Z,10.20
2024-02-17T08:47:13.728Z,10.30
2024-02-17T08:49:40.741Z,10.30
2024-02-17T08:52:08.002Z,10.40
2024-02-17T08:54:35.186Z,10.40
2024-02-17T08:57:02.260Z,10.40
2024-02-17T08:59:29.221Z,10.30
2024-02-17T09:01:56.209Z,10.40
2024-02-17T09:04:23.262Z,10.50
2024-02-17T09:06:50.528Z,10.60
2024-02-17T09:09:18.662Z,10.70
2024-02-17T09:11:50.486Z,10.70
2024-02-17T09:14:17.504Z,10.50
2024-02-17T09:16:44.614Z,10.50
2024-02-17T09:19:11.638Z,10.50
2024-02-17T09:21:39.011Z,10.60
2024-02-17T09:24:06.236Z,10.70
2024-02-17T09:26:33.299Z,10.70
2024-02-17T09:29:00.173Z,10.80
2024-02-17T09:31:27.149Z,10.60
2024-02-17T09:33:54.263Z,10.60
2024-02-17T09:36:23.406Z,10.50
2024-02-17T09:38:50.458Z,10.50
2024-02-17T09:41:17.424Z,10.50
2024-02-17T09:43:44.374Z,10.60
2024-02-17T09:46:13.512Z,10.80
2024-02-17T09:48:42.202Z,11.00
2024-02-17T09:51:10.133Z,11.20
2024-02-17T09:53:40.180Z,11.30
2024-02-17T09:56:07.614Z,11.20
2024-02-17T09:58:34.637Z,11.20
2024-02-17T10:01:01.781Z,10.90
2024-02-17T10:03:30.321Z,10.90
2024-02-17T10:05:57.241Z,11.00
2024-02-17T10:08:29.687Z,11.00
2024-02-17T10:11:00.316Z,11.00
2024-02-17T10:13:27.805Z,11.00
2024-02-17T10:15:54.823Z,11.20
2024-02-17T10:18:24.136Z,11.30
2024-02-17T10:20:55.805Z,11.30
2024-02-17T10:23:23.649Z,11.40
2024-02-17T10:25:51.530Z,11.20
2024-02-17T10:28:18.556Z,11.30
2024-02-17T10:30:45.608Z,11.20
2024-02-17T10:33:15.249Z,11.30
2024-02-17T10:35:44.064Z,11.40
2024-02-17T10:38:12.631Z,11.50
2024-02-17T10:40:40.268Z,11.50
2024-02-17T10:43:07.434Z,11.30
2024-02-17T10:45:35.041Z,11.40
2024-02-17T10:48:09.185Z,11.60
2024-02-17T10:50:39.993Z,11.50
2024-02-17T10:53:31.116Z,11.60
2024-02-17T10:56:01.069Z,11.70
2024-02-17T10:58:28.077Z,11.70
2024-02-17T11:00:55.757Z,11.60
2024-02-17T11:03:32.645Z,11.60
2024-02-17T11:06:05.093Z,11.50
2024-02-17T11:08:35.729Z,11.40
2024-02-17T11:11:26.683Z,11.40
2024-02-17T11:13:54.798Z,11.40
2024-02-17T11:16:26.966Z,11.30
2024-02-17T11:18:57.244Z,11.30
2024-02-17T11:21:33.057Z,11.20
2024-02-17T11:24:01.777Z,11.20
2024-02-17T11:26:37.290Z,11.40
2024-02-17T11:29:27.316Z,11.30
2024-02-17T11:31:57.375Z,11.20
2024-02-17T11:34:26.158Z,11.20
2024-02-17T11:36:54.909Z,11.20
2024-02-17T11:39:22.910Z,11.20
2024-02-17T11:41:51.746Z,11.10
2024-02-17T11:44:18.706Z,11.20
2024-02-17T11:46:48.325Z,11.30
2024-02-17T11:49:24.139Z,11.30
2024-02-17T11:51:52.144Z,11.20
2024-02-17T11:54:20.233Z,11.20
2024-02-17T11:56:49.391Z,11.20
2024-02-17T11:59:17.869Z,11.30
2024-02-17T12:01:44.783Z,11.40
2024-02-17T12:04:11.892Z,11.60
2024-02-17T12:06:38.880Z,11.40
2024-02-17T12:09:05.851Z,11.30
2024-02-17T12:11:33.295Z,11.30
2024-02-17T12:14:00.767Z,11.50
2024-02-17T12:16:28.455Z,11.70
2024-02-17T12:18:55.712Z,11.90
2024-02-17T12:21:23.908Z,11.90
2024-02-17T12:23:52.077Z,11.80
2024-02-17T12:26:28.356Z,11.80
2024-02-17T12:29:06.362Z,12.00
2024-02-17T12:31:34.160Z,12.00
2024-02-17T12:34:01.195Z,12.00
2024-02-17T12:36:28.317Z,12.10
2024-02-17T12:39:01.536Z,12.00
2024-02-17T12:41:28.684Z,11.70
2024-02-17T12:43:58.235Z,11.70
2024-02-17T12:46:28.163Z,11.60
2024-02-17T12:48:59.007Z,11.60
2024-02-17T12:51:29.888Z,11.60
2024-02-17T12:53:59.190Z,11.60
2024-02-17T12:56:27.189Z,11.50
2024-02-17T12:58:54.020Z,11.50
2024-02-17T13:01:21.097Z,11.60
2024-02-17T13:03:50.529Z,11.70
2024-02-17T13:06:17.856Z,11.70
2024-02-17T13:08:45.201Z,11.70
2024-02-17T13:11:12.704Z,11.70
2024-02-17T13:13:40.994Z,11.90
2024-02-17T13:16:08.229Z,11.90
2024-02-17T13:18:35.880Z,11.90
2024-02-17T13:21:03.196Z,11.90
2024-02-17T13:23:30.116Z,11.90
2024-02-17T13:25:56.959Z,11.70
2024-02-17T13:28:23.833Z,11.70
2024-02-17T13:30:50.702Z,11.70
2024-02-17T13:33:18.270Z,11.50
2024-02-17T13:35:45.322Z,11.40
2024-02-17T13:38:18.983Z,11.40
2024-02-17T13:40:52.749Z,11.30
2024-02-17T13:43:20.859Z,11.10
2024-02-17T13:45:51.398Z,11.00
2024-02-17T13:48:18.792Z,10.90
2024-02-17T13:50:48.384Z,11.00
2024-02-17T13:53:15.844Z,11.00
2024-02-17T13:55:44.343Z,11.20
2024-02-17T13:58:12.224Z,11.20
2024-02-17T14:00:41.090Z,11.30
2024-02-17T14:03:09.084Z,11.50
2024-02-17T14:05:36.264Z,11.60
2024-02-17T14:08:03.328Z,11.60
2024-02-17T14:10:30.150Z,11.40
2024-02-17T14:12:57.238Z,11.30
2024-02-17T14:15:24.290Z,11.20
2024-02-17T14:17:51.389Z,11.30
2024-02-17T14:20:18.481Z,11.40
2024-02-17T14:22:45.475Z,11.40
2024-02-17T14:25:14.355Z,11.30
2024-02-17T14:27:41.570Z,11.20
2024-02-17T14:30:09.021Z,11.30
2024-02-17T14:32:36.081Z,11.30
2024-02-17T14:35:03.660Z,11.30
2024-02-17T14:37:30.748Z,11.20
2024-02-17T14:39:59.291Z,11.00
2024-02-17T14:42:26.792Z,11.00
2024-02-17T14:44:53.812Z,11.00
2024-02-17T14:47:20.926Z,10.90
2024-02-17T14:49:47.978Z,10.90
2024-02-17T14:52:14.946Z,11.00
2024-02-17T14:54:44.378Z,10.90
2024-02-17T14:57:12.978Z,10.90
2024-02-17T14:59:40.126Z,11.00
2024-02-17T15:02:08.155Z,10.90
2024-02-17T15:04:35.349Z,11.00
2024-02-17T15:07:02.982Z,10.90
2024-02-17T15:09:30.127Z,11.00
2024-02-17T15:11:59.662Z,11.00
2024-02-17T15:14:30.303Z,11.10
2024-02-17T15:16:57.746Z,11.00
2024-02-17T15:19:24.784Z,10.90
2024-02-17T15:21:51.952Z,11.00
2024-02-17T15:24:19.049Z,11.00
2024-02-17T15:26:46.493Z,11.00
2024-02-17T15:29:13.399Z,11.00
2024-02-17T15:31:40.225Z,11.00
2024-02-17T15:34:07.321Z,11.00
2024-02-17T15:36:34.525Z,11.00
2024-02-17T15:39:01.459Z,11.00
2024-02-17T15:41:28.466Z,11.10
2024-02-17T15:43:55.456Z,11.00
2024-02-17T15:46:23.400Z,11.00
2024-02-17T15:48:50.527Z,11.00
2024-02-17T15:51:17.816Z,11.00
2024-02-17T15:53:44.818Z,10.90
2024-02-17T15:56:18.010Z,10.90
2024-02-17T15:58:45.751Z,10.80
2024-02-17T16:01:13.017Z,10.80
2024-02-17T16:03:40.150Z,10.80
2024-02-17T16:06:07.836Z,10.80
2024-02-17T16:08:36.002Z,10.80
2024-02-17T16:11:04.190Z,10.70
2024-02-17T16:13:31.382Z,10.70
2024-02-17T16:16:00.532Z,10.70
2024-02-17T16:18:30.951Z,10.70
2024-02-17T16:21:00.456Z,10.70
2024-02-17T16:23:29.719Z,10.60
2024-02-17T16:25:56.632Z,10.70
2024-02-17T16:28:23.776Z,10.60
2024-02-17T16:30:50.875Z,10.60
2024-02-17T16:33:18.170Z,10.60
2024-02-17T16:35:45.166Z,10.60
2024-02-17T16:38:12.092Z,10.70
2024-02-17T16:40:38.982Z,10.70
2024-02-17T16:43:06.634Z,10.60
2024-02-17T16:45:35.539Z,10.50
2024-02-17T16:48:04.027Z,10.50
2024-02-17T16:50:31.035Z,10.50
2024-02-17T16:52:57.915Z,10.50
2024-02-17T16:55:27.767Z,10.50
2024-02-17T16:57:55.512Z,10.50
2024-02-17T17:00:23.055Z,10.40
2024-02-17T17:02:50.307Z,10.40
2024-02-17T17:05:17.475Z,10.40
2024-02-17T17:07:44.576Z,10.40
2024-02-17T17:10:11.754Z,10.40
2024-02-17T17:12:38.773Z,10.40
2024-02-17T17:15:06.593Z,10.30
2024-02-17T17:17:33.592Z,10.30
2024-02-17T17:20:03.566Z,10.30
2024-02-17T17:22:42.141Z,10.30
2024-02-17T17:25:14.514Z,10.30
2024-02-17T17:27:41.816Z,10.30
2024-02-17T17:30:13.000Z,10.30
2024-02-17T17:32:40.870Z,10.20
2024-02-17T17:35:08.764Z,10.20
2024-02-17T17:37:35.875Z,10.10
2024-02-17T17:40:03.724Z,10.10
2024-02-17T17:42:30.899Z,10.10
2024-02-17T17:44:57.964Z,10.00
2024-02-17T17:47:24.964Z,10.00
2024-02-17T17:49:52.099Z,10.00
2024-02-17T17:52:19.751Z,10.00
2024-02-17T17:54:51.322Z,9.90
2024-02-17T17:57:21.515Z,9.90
2024-02-17T17:59:48.368Z,9.90
2024-02-17T18:02:15.207Z,9.90
2024-02-17T18:04:42.506Z,9.90
2024-02-17T18:07:09.623Z,9.90
2024-02-17T18:09:36.541Z,9.90
2024-02-17T18:12:03.481Z,10.00
2024-02-17T18:14:31.782Z,10.00
2024-02-17T18:16:58.730Z,10.00
2024-02-17T18:19:25.678Z,10.10
2024-02-17T18:21:52.614Z,10.10
2024-02-17T18:24:19.641Z,10.10
2024-02-17T18:26:47.902Z,10.10
2024-02-17T18:29:15.625Z,10.20
2024-02-17T18:31:42.495Z,10.20
2024-02-17T18:34:09.544Z,10.20
2024-02-17T18:36:36.459Z,10.20
2024-02-17T18:39:04.117Z,10.10
2024-02-17T18:41:30.930Z,10.10
2024-02-17T18:43:58.318Z,10.10
2024-02-17T18:46:25.248Z,10.10
2024-02-17T18:48:52.269Z,10.20
2024-02-17T18:51:19.889Z,10.10
2024-02-17T18:53:47.072Z,10.20
2024-02-17T18:56:14.002Z,10.20
2024-02-17T18:58:47.968Z,10.20
2024-02-17T19:01:15.178Z,10.20
2024-02-17T19:03:49.186Z,10.20
2024-02-17T19:06:22.942Z,10.20
2024-02-17T19:08:50.812Z,10.30
2024-02-17T19:11:17.923Z,10.40
2024-02-17T19:13:44.957Z,10.40
2024-02-17T19:16:15.804Z,10.50
2024-02-17T19:18:43.278Z,10.50
2024-02-17T19:21:12.190Z,10.50
2024-02-17T19:23:39.246Z,10.60
2024-02-17T19:26:06.823Z,10.60
2024-02-17T19:28:34.088Z,10.70
2024-02-17T19:31:05.748Z,10.70
2024-02-17T19:33:33.030Z,10.80
2024-02-17T19:35:59.983Z,10.80
2024-02-17T19:38:26.838Z,10.90
2024-02-17T19:40:53.708Z,10.90
2024-02-17T19:43:20.696Z,10.90
2024-02-17T19:45:47.657Z,10.90
2024-02-17T19:48:14.784Z,11.00
2024-02-17T19:50:41.994Z,11.00
2024-02-17T19:53:08.876Z,11.00
2024-02-17T19:55:35.811Z,11.10
2024-02-17T19:58:03.534Z,11.10
2024-02-17T20:00:30.465Z,11.10
2024-02-17T20:02:57.347Z,11.20
2024-02-17T20:05:25.105Z,11.20
2024-02-17T20:07:51.941Z,11.30
2024-02-17T20:10:19.061Z,11.30
2024-02-17T20:12:46.322Z,11.30
2024-02-17T20:15:13.531Z,11.40
2024-02-17T20:17:45.662Z,11.40
2024-02-17T20:20:16.401Z,11.40
2024-02-17T20:22:43.762Z,11.40
2024-02-17T20:25:11.827Z,11.50
2024-02-17T20:27:38.891Z,11.40
2024-02-17T20:30:06.671Z,11.40
2024-02-17T20:32:33.572Z,11.40
2024-02-17T20:35:00.674Z,11.30
2024-02-17T20:37:27.709Z,11.20
2024-02-17T20:39:55.506Z,11.20
2024-02-17T20:42:22.593Z,11.20
2024-02-17T20:44:49.575Z,11.20
2024-02-17T20:47:16.600Z,11.20
2024-02-17T20:49:43.841Z,11.20
2024-02-17T20:52:11.045Z,11.10
2024-02-17T20:54:38.113Z,11.10
2024-02-17T20:57:05.994Z,11.10
2024-02-17T20:59:32.808Z,11.10
2024-02-17T21:01:59.658Z,11.10
2024-02-17T21:04:28.090Z,11.10
2024-02-17T21:06:55.979Z,11.20
2024-02-17T21:09:23.660Z,11.20
2024-02-17T21:11:50.745Z,11.20
2024-02-17T21:14:17.530Z,11.20
2024-02-17T21:16:44.375Z,11.20
2024-02-17T21:19:11.547Z,11.20
2024-02-17T21:21:38.563Z,11.20
2024-02-17T21:24:05.742Z,11.20
2024-02-17T21:26:35.144Z,11.20
2024-02-17T21:29:02.048Z,11.20
2024-02-17T21:31:28.951Z,11.20
2024-02-17T21:33:56.012Z,11.20
2024-02-17T21:36:23.524Z,11.20
2024-02-17T21:38:50.564Z,11.20
2024-02-17T21:41:18.392Z,11.20
2024-02-17T21:43:45.329Z,11.20
2024-02-17T21:46:14.497Z,11.20
2024-02-17T21:48:41.869Z,11.20
2024-02-17T21:51:17.282Z,11.20
2024-02-17T21:53:44.920Z,11.20
2024-02-17T21:56:11.944Z,11.20
2024-02-17T21:58:39.798Z,11.20
2024-02-17T22:01:07.272Z,11.10
2024-02-17T22:03:34.580Z,11.10
2024-02-17T22:06:02.490Z,11.20
2024-02-17T22:08:29.791Z,11.20
2024-02-17T22:10:56.792Z,11.20
2024-02-17T22:13:23.779Z,11.30
2024-02-17T22:15:50.703Z,11.30
2024-02-17T22:18:17.776Z,11.30
2024-02-17T22:20:44.939Z,11.30
2024-02-17T22:23:13.396Z,11.20
2024-02-17T22:25:41.867Z,11.20
2024-02-17T22:28:10.113Z,11.10
2024-02-17T22:30:37.094Z,11.10
2024-02-17T22:33:04.473Z,11.10
2024-02-17T22:35:31.380Z,11.00
2024-02-17T22:38:03.528Z,10.90
2024-02-17T22:40:32.325Z,10.90
2024-02-17T22:43:00.878Z,10.90
2024-02-17T22:45:28.043Z,10.90
2024-02-17T22:47:55.315Z,10.90
2024-02-17T22:50:22.374Z,10.90
2024-02-17T22:52:49.353Z,10.90
2024-02-17T22:55:16.419Z,11.00
2024-02-17T22:57:43.781Z,11.00
2024-02-17T23:00:23.502Z,11.00
2024-02-17T23:02:51.555Z,11.00
2024-02-17T23:05:19.477Z,11.00
2024-02-17T23:07:47.137Z,11.10
2024-02-17T23:10:14.178Z,11.00
2024-02-17T23:12:41.580Z,11.00
2024-02-17T23:15:10.680Z,11.00
2024-02-17T23:17:38.346Z,11.00
2024-02-17T23:20:06.910Z,11.00
2024-02-17T23:22:34.491Z,11.00
2024-02-17T23:25:02.077Z,10.90
2024-02-17T23:27:29.224Z,10.90
2024-02-17T23:29:56.207Z,10.80
2024-02-17T23:32:23.093Z,10.80
2024-02-17T23:34:50.613Z,10.80
2024-02-17T23:37:17.634Z,10.80
2024-02-17T23:39:46.675Z,10.70
2024-02-17T23:42:13.874Z,10.60
2024-02-17T23:44:40.849Z,10.60
2024-02-17T23:47:07.893Z,10.50
2024-02-17T23:49:35.443Z,10.50
2024-02-17T23:52:03.830Z,10.40
2024-02-17T23:54:30.995Z,10.40
2024-02-17T23:56:59.005Z,10.40
2024-02-17T23:59:26.020Z,10.30
